Time;durP1;ratioP1;P1;durP2;ratioP2;P2;SDS_P1;SDS_P2;PMS_P1;PMS_P2;Temp;Humidity;BMP_temperature;BMP_pressure;BME280_temperature;BME280_humidity;BME280_pressure;Samples;Min_cycle;Max_cycle;Signal;HPM_P1;HPM_P2
2022/04/17 00:02:01;;;;;;;2.50;2.40;;;3.80;75.10;;;;;;5176333;28;20205;-53
2022/04/17 00:04:32;;;;;;;2.00;1.80;;;3.80;75.60;;;;;;5155151;28;20448;-53
2022/04/17 00:07:02;;;;;;;2.03;1.93;;;3.80;75.80;;;;;;5163851;28;20498;-53
2022/04/17 00:09:33;;;;;;;2.17;2.10;;;3.80;76.30;;;;;;5161482;28;20196;-54
2022/04/17 00:12:04;;;;;;;3.20;2.00;;;3.80;76.80;;;;;;5159794;28;20215;-54
2022/04/17 00:14:35;;;;;;;2.73;2.53;;;3.80;77.40;;;;;;5154558;28;20205;-54
2022/04/17 00:17:06;;;;;;;2.50;2.30;;;3.80;78.10;;;;;;5165038;28;20547;-54
2022/04/17 00:19:36;;;;;;;2.50;2.30;;;3.80;78.90;;;;;;5161298;28;20440;-54
2022/04/17 00:22:07;;;;;;;13.63;2.13;;;3.70;79.60;;;;;;5170716;28;20559;-53
2022/04/17 00:24:37;;;;;;;2.20;2.00;;;3.70;80.70;;;;;;5159616;28;20276;-54
2022/04/17 00:27:09;;;;;;;2.10;2.00;;;3.70;81.30;;;;;;5164152;28;20200;-53
2022/04/17 00:29:39;;;;;;;2.90;2.70;;;3.70;83.00;;;;;;5160648;28;20223;-55
2022/04/17 00:32:13;;;;;;;4.10;2.30;;;3.70;83.70;;;;;;5158569;28;20511;-53
2022/04/17 00:34:45;;;;;;;2.83;2.00;;;3.70;84.70;;;;;;5160294;28;20357;-53
2022/04/17 00:37:15;;;;;;;2.30;2.17;;;3.60;85.10;;;;;;5158269;28;20448;-53
2022/04/17 00:39:46;;;;;;;2.30;2.20;;;3.70;86.40;;;;;;5161952;28;20462;-54
2022/04/17 00:42:16;;;;;;;2.63;2.43;;;3.60;87.10;;;;;;5160022;28;20312;-53
2022/04/17 00:44:47;;;;;;;3.10;2.60;;;3.60;88.30;;;;;;5159167;28;20204;-54
2022/04/17 00:47:18;;;;;;;2.10;2.00;;;3.60;89.80;;;;;;5161176;28;20193;-55
2022/04/17 00:49:49;;;;;;;2.30;2.10;;;3.60;90.60;;;;;;5162022;28;20236;-54
2022/04/17 00:52:20;;;;;;;10.23;2.47;;;3.60;91.20;;;;;;5157560;28;20207;-54
2022/04/17 00:54:53;;;;;;;2.43;2.30;;;3.50;91.80;;;;;;5163479;28;20224;-54
2022/04/17 00:57:24;;;;;;;2.70;2.40;;;3.50;91.80;;;;;;5160443;28;20849;-54
2022/04/17 00:59:56;;;;;;;5.13;2.80;;;3.50;92.20;;;;;;5160592;28;20443;-54
2022/04/17 01:02:27;;;;;;;3.60;2.20;;;3.50;92.00;;;;;;5159870;28;20216;-53
2022/04/17 01:04:57;;;;;;;2.40;2.20;;;3.50;92.30;;;;;;5161846;28;20455;-54
2022/04/17 01:07:28;;;;;;;2.57;2.33;;;3.40;92.50;;;;;;5161214;28;20192;-54
2022/04/17 01:10:01;;;;;;;7.53;3.30;;;3.50;92.60;;;;;;5153540;28;20216;-54
2022/04/17 01:12:32;;;;;;;3.60;2.57;;;3.50;92.80;;;;;;5157436;28;20205;-54
2022/04/17 01:15:03;;;;;;;2.50;2.30;;;3.50;92.80;;;;;;5157410;28;20468;-54
2022/04/17 01:17:34;;;;;;;4.20;3.10;;;3.40;93.00;;;;;;5161669;28;20181;-53
2022/04/17 01:20:06;;;;;;;2.73;2.50;;;3.40;94.00;;;;;;5157918;28;20467;-53
2022/04/17 01:22:37;;;;;;;2.97;2.40;;;3.30;94.30;;;;;;5172818;28;20205;-53
2022/04/17 01:27:56;;;;;;;2.30;2.20;;;3.30;95.00;;;;;;5157133;28;20232;-54
2022/04/17 01:30:27;;;;;;;3.17;2.73;;;3.30;95.40;;;;;;5162722;28;20444;-55
2022/04/17 01:32:57;;;;;;;2.97;2.70;;;3.30;95.40;;;;;;5159460;28;20215;-53
2022/04/17 01:35:28;;;;;;;2.70;2.50;;;3.30;95.40;;;;;;5159731;28;20212;-54
2022/04/17 01:37:58;;;;;;;2.27;2.07;;;3.20;95.50;;;;;;5159975;28;20199;-53
2022/04/17 01:40:29;;;;;;;3.17;2.97;;;3.20;96.10;;;;;;5154847;28;20192;-54
2022/04/17 01:42:59;;;;;;;2.60;2.50;;;3.20;96.20;;;;;;5162048;28;20216;-53
2022/04/17 01:45:31;;;;;;;2.20;2.10;;;3.20;96.10;;;;;;5159091;28;20235;-53
2022/04/17 01:48:01;;;;;;;4.00;2.37;;;3.20;96.30;;;;;;5162115;28;20603;-53
2022/04/17 01:50:32;;;;;;;3.50;2.50;;;3.30;96.20;;;;;;5158712;28;20436;-53
2022/04/17 01:53:03;;;;;;;2.63;2.43;;;3.20;96.30;;;;;;5153527;28;20207;-53
2022/04/17 01:55:35;;;;;;;2.07;1.97;;;3.30;96.00;;;;;;5153362;28;20243;-53
2022/04/17 01:58:06;;;;;;;2.40;1.87;;;3.20;95.80;;;;;;5134163;28;20654;-54
2022/04/17 02:00:36;;;;;;;2.20;2.10;;;3.20;96.40;;;;;;5155882;28;20451;-53
2022/04/17 02:03:07;;;;;;;2.53;2.33;;;3.20;96.50;;;;;;5155759;28;20764;-53
2022/04/17 02:05:37;;;;;;;5.80;1.83;;;3.10;96.70;;;;;;5160344;28;20193;-54
2022/04/17 02:08:08;;;;;;;2.63;2.40;;;3.10;96.90;;;;;;5159425;28;20184;-54
2022/04/17 02:10:38;;;;;;;2.27;2.17;;;3.00;97.50;;;;;;5153572;28;20199;-54
2022/04/17 02:13:09;;;;;;;3.30;2.30;;;3.00;97.80;;;;;;5161170;28;20291;-54
2022/04/17 02:15:39;;;;;;;2.70;2.50;;;3.00;98.50;;;;;;5165489;28;20213;-53
2022/04/17 02:18:11;;;;;;;2.50;2.40;;;3.00;98.90;;;;;;5167309;28;20641;-53
2022/04/17 02:20:42;;;;;;;2.83;2.43;;;3.00;99.50;;;;;;5163044;28;20216;-53
2022/04/17 02:23:13;;;;;;;5.13;3.40;;;3.00;99.90;;;;;;5163137;28;20471;-53
2022/04/17 02:25:44;;;;;;;3.50;2.50;;;2.90;99.90;;;;;;5154549;28;20185;-53
2022/04/17 02:28:14;;;;;;;4.67;3.03;;;2.90;99.90;;;;;;5159796;28;20447;-53
2022/04/17 02:30:45;;;;;;;2.50;1.90;;;2.90;99.90;;;;;;5163142;28;20633;-55
2022/04/17 02:33:15;;;;;;;3.00;2.80;;;2.90;99.90;;;;;;5162318;28;20205;-53
2022/04/17 02:35:46;;;;;;;2.50;2.40;;;2.90;99.90;;;;;;5159480;28;20212;-53
2022/04/17 02:38:16;;;;;;;2.77;2.67;;;2.80;99.90;;;;;;5163914;28;20185;-54
2022/04/17 02:40:47;;;;;;;2.73;2.63;;;2.80;99.90;;;;;;5159997;28;20182;-53
2022/04/17 02:43:18;;;;;;;1.97;1.87;;;2.80;99.90;;;;;;5158071;28;20189;-53
2022/04/17 02:45:52;;;;;;;4.30;2.47;;;2.80;99.90;;;;;;5162973;28;20188;-54
2022/04/17 02:48:23;;;;;;;2.67;2.13;;;2.80;99.90;;;;;;5162705;28;20531;-54
2022/04/17 02:50:55;;;;;;;2.60;2.50;;;2.90;99.90;;;;;;5162298;28;20443;-53
2022/04/17 02:53:25;;;;;;;3.00;2.43;;;2.90;99.90;;;;;;5161746;28;20185;-54
2022/04/17 02:55:56;;;;;;;2.40;2.20;;;2.90;99.90;;;;;;5158941;28;20463;-54
2022/04/17 02:58:26;;;;;;;2.47;2.30;;;2.90;99.90;;;;;;5161004;28;20212;-53
2022/04/17 03:06:35;;;;;;;2.30;2.20;;;2.80;99.90;;;;;;5157252;28;20822;-53
2022/04/17 03:09:05;;;;;;;2.17;2.17;;;2.80;99.90;;;;;;5163290;28;20440;-54
2022/04/17 03:11:36;;;;;;;2.20;2.10;;;2.80;99.90;;;;;;5162014;28;20227;-53
2022/04/17 03:14:06;;;;;;;3.67;2.30;;;2.80;99.90;;;;;;5163588;28;20279;-53
2022/04/17 03:16:37;;;;;;;2.27;2.17;;;2.70;99.90;;;;;;5162270;28;20523;-54
2022/04/17 03:19:08;;;;;;;3.13;2.30;;;2.70;99.90;;;;;;5163323;28;20638;-54
2022/04/17 03:21:39;;;;;;;2.33;2.20;;;2.60;99.90;;;;;;5157726;28;20460;-54
2022/04/17 03:24:10;;;;;;;2.40;2.30;;;2.60;99.90;;;;;;5158584;28;20189;-53
2022/04/17 03:26:41;;;;;;;2.07;1.97;;;2.60;99.90;;;;;;5156132;28;20180;-54
2022/04/17 03:29:11;;;;;;;3.70;2.47;;;2.50;99.90;;;;;;5163010;28;20429;-54
2022/04/17 03:31:44;;;;;;;2.40;2.20;;;2.60;99.90;;;;;;5157388;28;20448;-54
2022/04/17 03:34:15;;;;;;;3.03;2.83;;;2.50;99.90;;;;;;5156957;28;20386;-54
2022/04/17 03:36:46;;;;;;;4.40;2.47;;;2.50;99.90;;;;;;5159464;28;20516;-54
2022/04/17 03:39:17;;;;;;;2.70;2.57;;;2.60;99.90;;;;;;5166675;28;20177;-54
2022/04/17 03:41:48;;;;;;;2.87;2.60;;;2.60;99.90;;;;;;5153770;28;20543;-53
2022/04/17 03:44:19;;;;;;;2.80;2.60;;;2.60;99.90;;;;;;5156461;28;20327;-54
2022/04/17 03:46:51;;;;;;;6.53;2.13;;;2.60;99.90;;;;;;5164286;28;20268;-54
2022/04/17 03:49:22;;;;;;;2.20;2.10;;;2.60;99.90;;;;;;5165390;28;20606;-54
2022/04/17 03:51:53;;;;;;;4.33;2.87;;;2.70;99.90;;;;;;5176497;28;20463;-54
2022/04/17 03:54:23;;;;;;;2.40;2.30;;;2.70;99.90;;;;;;5164606;28;20211;-53
2022/04/17 03:56:54;;;;;;;3.40;2.67;;;2.60;99.90;;;;;;5156129;28;20444;-54
2022/04/17 03:59:25;;;;;;;2.57;2.37;;;2.60;99.90;;;;;;5154527;28;20188;-54
2022/04/17 04:01:55;;;;;;;2.27;2.13;;;2.60;99.90;;;;;;5164161;28;20995;-54
2022/04/17 04:04:26;;;;;;;1.90;1.80;;;2.60;99.90;;;;;;5161336;28;20668;-54
2022/04/17 04:06:56;;;;;;;1.97;1.87;;;2.60;99.90;;;;;;5155510;28;20262;-53
2022/04/17 04:09:27;;;;;;;1.60;1.60;;;2.60;99.90;;;;;;5161232;28;20193;-54
2022/04/17 04:11:58;;;;;;;2.03;1.97;;;2.60;99.90;;;;;;5164446;28;20608;-54
2022/04/17 04:14:28;;;;;;;2.57;1.70;;;2.70;99.90;;;;;;5163128;28;20201;-54
2022/04/17 04:16:59;;;;;;;2.03;1.97;;;2.70;99.90;;;;;;5156935;28;20185;-54
2022/04/17 04:19:30;;;;;;;1.93;1.73;;;2.80;99.90;;;;;;5165861;28;20268;-54
2022/04/17 04:22:01;;;;;;;2.63;2.17;;;2.70;99.90;;;;;;5157992;28;20551;-53
2022/04/17 04:24:31;;;;;;;2.20;2.10;;;2.80;99.90;;;;;;5138999;28;20188;-54
2022/04/17 04:29:52;;;;;;;3.83;2.50;;;2.90;99.90;;;;;;5157346;28;20312;-55
2022/04/17 04:32:22;;;;;;;2.30;2.20;;;3.00;99.90;;;;;;5151277;28;20457;-54
2022/04/17 04:35:00;;;;;;;3.90;3.20;;;3.00;99.90;;;;;;5170718;28;20211;-54
2022/04/17 04:37:31;;;;;;;6.57;3.33;;;3.10;99.90;;;;;;5150831;28;20189;-54
2022/04/17 04:40:03;;;;;;;3.30;2.90;;;3.20;99.90;;;;;;5155379;28;20440;-54
2022/04/17 04:42:33;;;;;;;5.40;3.10;;;3.40;99.90;;;;;;5154300;28;20708;-54
2022/04/17 04:47:53;;;;;;;4.13;3.83;;;3.50;99.90;;;;;;5164521;28;20188;-53
2022/04/17 04:50:24;;;;;;;5.83;3.80;;;3.70;99.90;;;;;;5160532;28;20448;-54
2022/04/17 04:52:54;;;;;;;3.80;3.53;;;3.80;99.90;;;;;;5161718;28;20296;-54
2022/04/17 04:55:25;;;;;;;10.57;3.33;;;4.40;99.90;;;;;;5159679;28;20212;-54
2022/04/17 04:57:55;;;;;;;3.97;3.47;;;5.10;99.90;;;;;;5159302;28;20303;-54
2022/04/17 05:00:26;;;;;;;4.93;3.57;;;5.70;99.40;;;;;;5161843;28;20186;-54
2022/04/17 05:02:56;;;;;;;5.00;3.13;;;6.50;92.10;;;;;;5147406;28;20207;-54
2022/04/17 05:05:27;;;;;;;3.90;3.60;;;6.90;82.90;;;;;;5157022;28;20194;-54
2022/04/17 05:07:57;;;;;;;3.83;2.90;;;6.90;79.60;;;;;;5157844;28;20313;-54
2022/04/17 05:10:28;;;;;;;6.67;3.00;;;7.30;76.70;;;;;;5161261;28;20179;-54
2022/04/17 05:12:59;;;;;;;3.53;3.30;;;7.60;74.00;;;;;;5159824;28;20203;-55
2022/04/17 05:15:30;;;;;;;3.93;3.47;;;7.90;70.40;;;;;;5160979;28;20204;-53
2022/04/17 05:18:00;;;;;;;3.20;3.00;;;8.30;67.60;;;;;;5160367;28;20176;-55
2022/04/17 05:20:34;;;;;;;3.07;2.80;;;9.10;63.80;;;;;;5158785;28;20475;-54
2022/04/17 05:23:17;;;;;;;6.83;3.30;;;9.90;58.20;;;;;;5156544;28;20701;-53
2022/04/17 05:25:52;;;;;;;2.73;2.60;;;11.30;52.30;;;;;;5164016;28;20490;-53
2022/04/17 05:28:23;;;;;;;3.33;3.03;;;12.80;45.90;;;;;;5152199;28;20471;-53
2022/04/17 05:30:54;;;;;;;4.07;3.20;;;13.80;42.50;;;;;;5158064;28;20806;-54
2022/04/17 05:33:25;;;;;;;5.93;3.57;;;14.50;40.50;;;;;;5157216;28;20870;-54
2022/04/17 05:35:55;;;;;;;3.13;3.00;;;14.80;38.80;;;;;;5161769;28;20539;-53
2022/04/17 05:38:26;;;;;;;5.30;3.27;;;15.30;38.00;;;;;;5159239;28;20248;-54
2022/04/17 05:40:57;;;;;;;5.90;3.37;;;16.10;36.40;;;;;;5162537;28;20184;-54
2022/04/17 05:43:27;;;;;;;3.50;3.20;;;16.80;34.30;;;;;;5158872;28;20243;-53
2022/04/17 05:45:58;;;;;;;6.67;3.80;;;17.40;33.30;;;;;;5157687;28;20201;-54
2022/04/17 05:48:29;;;;;;;3.23;2.90;;;17.70;32.30;;;;;;5167424;28;20235;-53
2022/04/17 05:51:00;;;;;;;2.93;2.70;;;18.10;31.70;;;;;;5166813;28;20186;-53
2022/04/17 05:53:31;;;;;;;7.10;3.40;;;18.50;30.60;;;;;;5161310;28;20200;-54
2022/04/17 05:56:01;;;;;;;4.43;3.10;;;18.90;30.10;;;;;;5162354;28;20709;-54
2022/04/17 05:58:33;;;;;;;4.10;3.70;;;19.20;29.60;;;;;;5162672;28;20835;-54
2022/04/17 06:01:03;;;;;;;3.10;3.00;;;19.50;29.30;;;;;;5161181;28;20200;-54
2022/04/17 06:03:34;;;;;;;3.40;3.20;;;19.70;29.10;;;;;;5162627;28;20449;-54
2022/04/17 06:06:05;;;;;;;3.00;2.80;;;20.20;29.10;;;;;;5160660;28;20188;-54
2022/04/17 06:08:36;;;;;;;3.50;3.30;;;20.70;28.10;;;;;;5162500;28;20216;-54
2022/04/17 06:11:06;;;;;;;4.83;3.47;;;20.80;27.60;;;;;;5156571;28;20451;-55
2022/04/17 06:13:37;;;;;;;3.33;3.13;;;21.00;27.30;;;;;;5165366;28;20187;-54
2022/04/17 06:16:08;;;;;;;3.40;3.07;;;21.20;27.10;;;;;;5159170;28;20220;-54
2022/04/17 06:18:38;;;;;;;3.57;3.10;;;21.40;26.30;;;;;;5156330;28;20190;-54
2022/04/17 06:21:11;;;;;;;3.43;3.13;;;21.20;25.70;;;;;;5160029;28;20685;-54
2022/04/17 06:23:41;;;;;;;3.10;2.97;;;21.00;26.10;;;;;;5164787;28;20663;-55
2022/04/17 06:26:12;;;;;;;3.20;3.00;;;21.30;26.30;;;;;;5160862;28;20443;-55
2022/04/17 06:28:42;;;;;;;2.60;2.50;;;21.30;26.00;;;;;;5160856;28;20197;-54
2022/04/17 06:31:13;;;;;;;2.70;2.50;;;21.50;25.90;;;;;;5164429;28;20568;-55
2022/04/17 06:33:43;;;;;;;2.70;2.57;;;21.90;25.70;;;;;;5163995;28;20672;-54
2022/04/17 06:36:14;;;;;;;2.57;2.47;;;21.80;24.80;;;;;;5155126;28;20218;-54
2022/04/17 06:38:44;;;;;;;2.33;2.20;;;21.40;25.20;;;;;;5161389;28;20169;-55
2022/04/17 06:41:15;;;;;;;3.10;2.83;;;21.60;25.00;;;;;;5159102;28;20204;-55
2022/04/17 06:43:45;;;;;;;3.73;2.13;;;22.10;24.50;;;;;;5164568;28;20240;-54
2022/04/17 06:46:16;;;;;;;2.10;1.93;;;23.10;24.20;;;;;;5165253;28;20181;-54
2022/04/17 06:48:47;;;;;;;1.97;1.87;;;24.10;23.60;;;;;;5167297;28;20221;-56
2022/04/17 06:51:22;;;;;;;3.30;2.50;;;24.90;22.70;;;;;;5161725;28;20669;-54
2022/04/17 06:53:53;;;;;;;2.00;1.97;;;25.20;22.20;;;;;;5161298;28;20216;-55
2022/04/17 06:56:23;;;;;;;2.37;2.23;;;25.60;21.90;;;;;;5159346;28;20499;-54
2022/04/17 06:58:54;;;;;;;2.50;2.30;;;24.80;21.40;;;;;;5156680;28;20181;-54
2022/04/17 07:01:24;;;;;;;3.50;2.17;;;24.90;22.40;;;;;;5145890;28;20213;-55
2022/04/17 07:03:55;;;;;;;2.43;2.27;;;25.80;22.20;;;;;;5159189;28;20174;-55
2022/04/17 07:06:25;;;;;;;2.37;2.07;;;26.70;21.40;;;;;;5167884;28;20189;-55
2022/04/17 07:08:56;;;;;;;3.90;2.30;;;27.10;20.80;;;;;;5166608;28;20185;-55
2022/04/17 07:11:27;;;;;;;2.10;2.00;;;27.10;20.20;;;;;;5163583;28;20305;-55
2022/04/17 07:13:58;;;;;;;2.53;2.33;;;27.00;20.30;;;;;;5166834;28;20267;-54
2022/04/17 07:16:29;;;;;;;2.00;1.90;;;27.10;20.20;;;;;;5166848;28;20460;-54
2022/04/17 07:18:59;;;;;;;1.70;1.70;;;27.50;20.80;;;;;;5165817;28;20452;-55
2022/04/17 07:21:30;;;;;;;1.70;1.60;;;28.20;19.80;;;;;;5161142;28;20224;-54
2022/04/17 07:24:01;;;;;;;1.30;1.30;;;28.70;19.40;;;;;;5166752;28;20189;-55
2022/04/17 07:26:32;;;;;;;1.60;1.50;;;28.60;18.60;;;;;;5162518;28;20201;-54
2022/04/17 07:29:03;;;;;;;2.73;1.63;;;28.10;19.10;;;;;;5152263;28;20931;-54
2022/04/17 07:31:34;;;;;;;1.57;1.47;;;28.40;19.00;;;;;;5165198;28;20239;-54
2022/04/17 07:34:04;;;;;;;2.00;1.67;;;28.30;18.80;;;;;;5162387;28;20436;-54
2022/04/17 07:36:35;;;;;;;2.00;2.00;;;28.50;18.70;;;;;;5159246;28;20235;-54
2022/04/17 07:39:06;;;;;;;3.40;2.00;;;28.50;18.80;;;;;;5163155;28;20188;-55
2022/04/17 07:41:36;;;;;;;3.00;2.27;;;27.60;19.30;;;;;;5164915;28;20217;-55
2022/04/17 07:44:11;;;;;;;1.90;1.90;;;27.30;19.50;;;;;;5153588;28;20177;-52
2022/04/17 07:46:42;;;;;;;2.00;2.00;;;26.30;20.50;;;;;;5160161;28;20185;-52
2022/04/17 07:49:13;;;;;;;1.70;1.60;;;26.70;20.40;;;;;;5160140;28;20440;-52
2022/04/17 07:51:43;;;;;;;2.20;2.10;;;26.60;19.90;;;;;;5163216;28;21047;-53
2022/04/17 07:54:14;;;;;;;2.03;1.93;;;26.50;20.40;;;;;;5166126;28;20692;-54
2022/04/17 07:56:44;;;;;;;2.07;1.97;;;26.90;20.40;;;;;;5163848;28;20196;-52
2022/04/17 07:59:15;;;;;;;3.73;2.13;;;26.30;20.40;;;;;;5159951;28;20583;-53
2022/04/17 08:01:46;;;;;;;2.17;2.10;;;25.70;20.60;;;;;;5158601;28;20276;-53
2022/04/17 08:04:16;;;;;;;2.40;2.30;;;25.80;20.80;;;;;;5165544;28;20276;-51
2022/04/17 08:06:47;;;;;;;1.80;1.40;;;25.40;21.10;;;;;;5156907;28;20196;-54
2022/04/17 08:09:18;;;;;;;1.60;1.60;;;24.60;21.40;;;;;;5160528;28;20251;-52
2022/04/17 08:11:51;;;;;;;1.70;1.60;;;23.80;21.40;;;;;;5166251;28;20205;-52
2022/04/17 08:14:22;;;;;;;2.20;2.10;;;23.10;22.40;;;;;;5160506;28;20177;-52
2022/04/17 08:16:52;;;;;;;2.30;1.80;;;23.30;22.30;;;;;;5163077;28;20443;-53
2022/04/17 08:19:24;;;;;;;1.70;1.60;;;23.50;22.50;;;;;;5164833;28;20657;-52
2022/04/17 08:21:55;;;;;;;2.00;1.90;;;23.50;22.40;;;;;;5161835;28;20264;-55
2022/04/17 08:24:25;;;;;;;2.13;2.03;;;23.60;22.50;;;;;;5162306;28;20860;-53
2022/04/17 08:26:58;;;;;;;2.03;1.93;;;23.10;22.50;;;;;;5162791;28;20181;-53
2022/04/17 08:29:30;;;;;;;2.83;2.70;;;22.60;23.20;;;;;;5162481;28;20191;-53
2022/04/17 08:32:01;;;;;;;4.93;2.73;;;21.70;23.40;;;;;;5161495;28;20987;-55
2022/04/17 08:34:31;;;;;;;9.03;2.77;;;21.10;24.20;;;;;;5158795;28;20485;-53
2022/04/17 08:37:02;;;;;;;4.50;2.83;;;20.30;24.90;;;;;;5161304;28;20624;-52
2022/04/17 08:39:32;;;;;;;5.10;3.47;;;19.70;25.70;;;;;;5159289;28;20283;-53
2022/04/17 08:42:05;;;;;;;3.13;2.83;;;19.20;26.60;;;;;;5157747;28;20685;-54
2022/04/17 08:44:36;;;;;;;4.93;3.10;;;17.70;27.40;;;;;;5153626;28;20189;-52
2022/04/17 08:47:07;;;;;;;5.20;3.03;;;16.20;29.50;;;;;;5155587;28;20506;-53
2022/04/17 08:49:38;;;;;;;4.63;3.43;;;15.20;30.90;;;;;;5145153;28;20275;-52
2022/04/17 08:52:15;;;;;;;3.97;3.27;;;15.00;32.00;;;;;;5149645;28;20490;-53
2022/04/17 08:54:48;;;;;;;5.30;3.40;;;14.80;32.50;;;;;;5159443;28;20459;-54
2022/04/17 08:57:19;;;;;;;4.53;3.40;;;14.50;33.10;;;;;;5158759;28;20551;-52
2022/04/17 08:59:49;;;;;;;3.10;2.90;;;14.10;33.80;;;;;;5156419;28;20432;-53
2022/04/17 09:02:20;;;;;;;4.63;3.07;;;13.90;34.60;;;;;;5153147;28;20471;-53
2022/04/17 09:04:51;;;;;;;4.03;2.70;;;13.60;34.80;;;;;;5159668;28;20184;-53
2022/04/17 09:07:21;;;;;;;2.90;2.50;;;13.40;34.70;;;;;;5158589;28;20173;-51
2022/04/17 09:09:53;;;;;;;3.30;3.00;;;13.20;34.60;;;;;;5162008;28;20181;-52
2022/04/17 09:12:25;;;;;;;3.20;2.87;;;13.20;35.10;;;;;;5158785;28;20213;-53
2022/04/17 09:14:57;;;;;;;2.90;2.40;;;13.30;35.10;;;;;;5158317;28;20571;-53
2022/04/17 09:17:34;;;;;;;4.63;3.20;;;13.50;34.70;;;;;;5161950;28;20471;-51
2022/04/17 09:20:05;;;;;;;5.80;3.13;;;13.70;34.20;;;;;;5161796;28;20486;-53
2022/04/17 09:22:47;;;;;;;3.53;2.87;;;13.90;34.10;;;;;;5149514;28;20456;-52
2022/04/17 09:25:18;;;;;;;2.53;2.30;;;14.20;33.70;;;;;;5162901;28;20444;-53
2022/04/17 09:27:59;;;;;;;2.77;2.57;;;14.60;32.80;;;;;;5162408;28;20440;-52
2022/04/17 09:30:33;;;;;;;3.10;2.80;;;14.80;32.70;;;;;;5176660;28;20530;-52
2022/04/17 09:33:13;;;;;;;2.93;2.50;;;14.90;32.10;;;;;;5164127;28;20456;-52
2022/04/17 09:36:03;;;;;;;3.33;2.93;;;14.70;32.00;;;;;;5154261;28;20829;-52
2022/04/17 09:38:33;;;;;;;4.30;2.53;;;14.40;32.40;;;;;;5159707;28;20436;-52
2022/04/17 09:41:13;;;;;;;6.77;3.03;;;14.30;33.30;;;;;;5158714;28;20478;-53
2022/04/17 09:43:44;;;;;;;1.97;1.87;;;14.20;32.80;;;;;;5161577;28;20185;-52
2022/04/17 09:46:14;;;;;;;3.83;3.27;;;14.10;33.50;;;;;;5163389;28;20455;-55
2022/04/17 09:48:45;;;;;;;2.90;2.50;;;13.90;33.50;;;;;;5162947;28;20247;-52
2022/04/17 09:51:22;;;;;;;4.00;3.20;;;13.70;34.40;;;;;;5157488;28;20205;-53
2022/04/17 09:54:05;;;;;;;4.60;2.87;;;13.80;34.40;;;;;;5154222;28;20272;-52
2022/04/17 09:56:41;;;;;;;3.73;3.30;;;13.80;34.40;;;;;;5156052;28;20549;-54
2022/04/17 09:59:18;;;;;;;3.10;2.67;;;13.60;34.40;;;;;;5155625;28;20447;-51
2022/04/17 10:01:54;;;;;;;6.37;2.40;;;13.50;34.90;;;;;;5151452;28;20551;-53
2022/04/17 10:04:26;;;;;;;2.67;2.47;;;13.60;35.10;;;;;;5156736;28;20440;-52
2022/04/17 10:06:59;;;;;;;1.93;1.83;;;13.70;34.80;;;;;;5162386;28;20443;-52
2022/04/17 10:09:31;;;;;;;3.67;2.80;;;14.00;34.70;;;;;;5159426;28;20448;-53
2022/04/17 10:12:02;;;;;;;5.77;3.80;;;14.30;34.40;;;;;;5154483;28;20834;-52
2022/04/17 10:14:35;;;;;;;2.90;2.10;;;14.30;34.30;;;;;;5159553;28;20451;-52
2022/04/17 10:17:08;;;;;;;3.20;2.03;;;14.40;33.50;;;;;;5161094;28;20466;-53
2022/04/17 10:19:42;;;;;;;1.70;1.60;;;14.40;33.30;;;;;;5161420;28;20433;-51
2022/04/17 10:22:18;;;;;;;2.37;2.17;;;14.70;33.60;;;;;;5159832;28;20463;-56
2022/04/17 10:24:52;;;;;;;3.63;2.17;;;14.80;33.30;;;;;;5158268;28;20440;-53
2022/04/17 10:27:48;;;;;;;1.90;1.80;;;14.70;33.10;;;;;;5153648;28;20462;-56
2022/04/17 10:30:41;;;;;;;1.53;1.40;;;14.60;32.40;;;;;;5155780;28;20945;-52
2022/04/17 10:33:36;;;;;;;1.80;1.77;;;14.60;32.70;;;;;;5160913;28;20471;-55
2022/04/17 10:36:47;;;;;;;2.20;1.97;;;14.60;32.70;;;;;;5164574;28;20460;-53
2022/04/17 10:39:22;;;;;;;2.97;1.73;;;14.60;32.90;;;;;;5161727;28;20444;-53
2022/04/17 10:41:53;;;;;;;1.80;1.80;;;14.40;33.30;;;;;;5166061;28;20467;-52
2022/04/17 10:44:28;;;;;;;2.00;1.90;;;14.20;33.30;;;;;;5157493;28;20483;-52
2022/04/17 10:47:03;;;;;;;1.50;1.40;;;14.10;33.90;;;;;;5159434;28;20434;-53
2022/04/17 10:49:52;;;;;;;2.13;1.70;;;14.20;33.30;;;;;;5164552;28;20459;-52
2022/04/17 10:52:28;;;;;;;2.00;1.90;;;14.30;33.60;;;;;;5158348;28;20464;-52
2022/04/17 10:55:09;;;;;;;1.50;1.40;;;14.50;33.40;;;;;;5161895;28;20463;-53
2022/04/17 10:57:50;;;;;;;2.23;2.13;;;14.80;33.50;;;;;;5160260;28;20959;-53
2022/04/17 11:00:27;;;;;;;6.93;4.87;;;14.80;32.80;;;;;;5164146;28;20436;-53
2022/04/17 11:03:00;;;;;;;2.30;2.20;;;14.80;32.40;;;;;;5162562;28;20864;-53
2022/04/17 11:08:28;;;;;;;4.27;2.83;;;15.00;30.50;;;;;;5161947;28;20437;-53
2022/04/17 11:11:03;;;;;;;1.83;1.70;;;15.30;30.50;;;;;;5159164;28;20448;-53
2022/04/17 11:13:35;;;;;;;6.23;4.10;;;15.30;30.20;;;;;;5157412;28;20189;-54
2022/04/17 11:16:08;;;;;;;2.50;2.30;;;15.30;30.40;;;;;;5162924;28;20483;-52
2022/04/17 11:18:39;;;;;;;1.67;1.57;;;15.40;30.00;;;;;;5157668;28;20524;-53
2022/04/17 11:21:10;;;;;;;4.43;1.70;;;15.20;29.60;;;;;;5158885;28;20456;-52
2022/04/17 11:23:49;;;;;;;1.50;1.40;;;15.00;29.90;;;;;;5149876;28;20455;-53
2022/04/17 11:26:39;;;;;;;2.07;1.23;;;14.80;29.70;;;;;;5157642;28;20192;-53
2022/04/17 11:29:10;;;;;;;6.90;1.67;;;14.70;29.60;;;;;;5173128;28;21004;-54
2022/04/17 11:31:41;;;;;;;1.97;1.90;;;14.60;28.50;;;;;;5155180;28;20464;-53
2022/04/17 11:34:11;;;;;;;1.47;1.47;;;14.50;29.00;;;;;;5159744;28;20177;-56
2022/04/17 11:36:42;;;;;;;2.33;1.87;;;14.40;30.20;;;;;;5180850;28;20212;-56
2022/04/17 11:39:13;;;;;;;2.43;2.27;;;14.30;30.70;;;;;;5160772;28;20186;-53
2022/04/17 11:41:44;;;;;;;1.57;1.50;;;14.40;30.70;;;;;;5155493;28;20479;-53
2022/04/17 11:44:16;;;;;;;1.70;1.20;;;14.60;31.00;;;;;;5141449;28;20181;-52
2022/04/17 11:46:46;;;;;;;7.00;3.13;;;14.80;31.80;;;;;;5157166;28;20193;-52
2022/04/17 11:49:18;;;;;;;2.20;1.70;;;14.90;32.10;;;;;;5170313;28;20432;-53
2022/04/17 11:51:49;;;;;;;2.20;2.00;;;15.00;32.10;;;;;;5151553;28;20216;-53
2022/04/17 11:54:32;;;;;;;1.43;1.43;;;15.00;31.70;;;;;;5156091;28;20460;-52
2022/04/17 11:57:03;;;;;;;1.60;1.60;;;15.10;31.90;;;;;;5157776;28;20196;-53
2022/04/17 11:59:54;;;;;;;3.07;1.40;;;15.20;31.00;;;;;;5154397;28;20809;-55
2022/04/17 12:02:27;;;;;;;1.93;1.90;;;15.50;30.60;;;;;;5146493;28;20209;-53
2022/04/17 12:05:09;;;;;;;2.50;1.90;;;15.50;30.90;;;;;;5153955;28;20805;-55
2022/04/17 12:07:43;;;;;;;2.00;1.90;;;15.30;31.20;;;;;;5158611;28;20444;-53
2022/04/17 12:10:14;;;;;;;3.07;1.77;;;15.30;32.00;;;;;;5156397;28;21002;-54
2022/04/17 12:12:45;;;;;;;2.33;2.20;;;15.20;31.60;;;;;;5149663;28;20924;-53
2022/04/17 12:15:16;;;;;;;5.07;1.30;;;15.20;31.10;;;;;;5155401;28;20518;-53
2022/04/17 12:17:58;;;;;;;2.33;2.13;;;14.90;31.40;;;;;;5173349;28;20173;-53
2022/04/17 12:20:28;;;;;;;2.10;1.90;;;14.80;31.90;;;;;;5157947;28;20189;-52
2022/04/17 12:22:59;;;;;;;1.33;1.33;;;14.80;31.90;;;;;;5155207;28;20456;-52
2022/04/17 12:25:30;;;;;;;3.50;3.20;;;14.90;32.20;;;;;;5161566;28;20272;-53
2022/04/17 12:28:01;;;;;;;1.37;1.37;;;15.00;32.10;;;;;;5158179;28;20196;-52
2022/04/17 12:30:31;;;;;;;3.63;1.83;;;15.10;31.60;;;;;;5159663;28;20192;-52
2022/04/17 12:33:26;;;;;;;14.20;7.40;;;15.20;31.20;;;;;;5161694;28;20925;-52
2022/04/17 12:36:08;;;;;;;2.73;1.50;;;15.40;30.60;;;;;;5158202;28;20292;-53
2022/04/17 12:38:43;;;;;;;1.27;1.23;;;15.70;30.80;;;;;;5154554;28;20433;-56
2022/04/17 12:41:26;;;;;;;1.77;1.20;;;16.10;30.00;;;;;;5156111;28;21038;-53
2022/04/17 12:43:56;;;;;;;1.83;1.63;;;16.10;29.00;;;;;;5161412;28;20812;-53
2022/04/17 12:46:32;;;;;;;1.70;1.40;;;15.90;28.90;;;;;;5164704;28;20447;-56
2022/04/17 12:49:10;;;;;;;2.00;1.80;;;15.70;29.00;;;;;;5161431;28;20196;-52
2022/04/17 12:51:56;;;;;;;1.30;1.20;;;15.60;28.70;;;;;;5164194;28;20459;-53
2022/04/17 12:54:32;;;;;;;1.23;1.23;;;15.50;28.40;;;;;;5144460;28;20435;-53
2022/04/17 12:57:11;;;;;;;2.70;1.30;;;15.60;28.30;;;;;;5160019;28;20769;-55
2022/04/17 12:59:52;;;;;;;1.33;1.33;;;15.60;28.50;;;;;;5158460;28;20443;-52
2022/04/17 13:02:24;;;;;;;2.10;1.20;;;15.60;28.70;;;;;;5159076;28;20536;-52
2022/04/17 13:04:59;;;;;;;1.20;1.10;;;15.60;28.80;;;;;;5163462;28;20446;-53
2022/04/17 13:07:34;;;;;;;1.80;1.70;;;15.40;28.70;;;;;;5160119;28;20668;-52
2022/04/17 13:10:07;;;;;;;2.27;1.70;;;15.20;29.10;;;;;;5162048;28;20522;-53
2022/04/17 13:12:45;;;;;;;3.03;1.57;;;15.30;29.30;;;;;;5159641;28;20713;-52
2022/04/17 13:15:17;;;;;;;1.40;1.03;;;15.50;28.50;;;;;;5162186;28;20754;-52
2022/04/17 13:17:51;;;;;;;2.17;1.23;;;15.60;28.50;;;;;;5159612;28;20424;-52
2022/04/17 13:20:23;;;;;;;3.90;2.10;;;15.60;28.90;;;;;;5177712;28;20503;-53
2022/04/17 13:22:54;;;;;;;1.73;1.63;;;15.80;29.20;;;;;;5154661;28;20470;-57
2022/04/17 13:25:25;;;;;;;1.33;1.33;;;15.90;29.00;;;;;;5149954;28;20979;-53
2022/04/17 13:27:56;;;;;;;1.80;1.40;;;15.90;29.30;;;;;;5160067;28;20432;-53
2022/04/17 13:30:26;;;;;;;2.13;2.00;;;16.00;29.30;;;;;;5161193;28;20506;-53
2022/04/17 13:32:57;;;;;;;4.30;2.00;;;15.90;29.20;;;;;;5164361;28;20282;-54
2022/04/17 13:35:27;;;;;;;6.50;5.67;;;15.80;29.10;;;;;;5154774;28;20221;-53